sensor_id;sensor_type;location;lat;lon;timestamp;pressure;altitude;pressure_sealevel;temperature;humidity
69247;BME280;56358;56.328;43.992;2023-04-04T00:01:03;100549.91;;;6.68;51.99
69247;BME280;56358;56.328;43.992;2023-04-04T00:03:04;100528.78;;;6.50;52.35
69247;BME280;56358;56.328;43.992;2023-04-04T00:05:05;100591.91;;;6.79;52.15
69247;BME280;56358;56.328;43.992;2023-04-04T00:07:06;100502.50;;;6.30;51.65
69247;BME280;56358;56.328;43.992;2023-04-04T00:09:07;100581.16;;;6.80;51.78
69247;BME280;56358;56.328;43.992;2023-04-04T00:11:08;100571.72;;;6.75;51.38
69247;BME280;56358;56.328;43.992;2023-04-04T00:13:08;100581.16;;;6.80;51.43
69247;BME280;56358;56.328;43.992;2023-04-04T00:15:10;100582.03;;;6.81;51.89
69247;BME280;56358;56.328;43.992;2023-04-04T00:17:10;100581.09;;;6.82;52.43
69247;BME280;56358;56.328;43.992;2023-04-04T00:19:11;100578.69;;;6.77;52.62
69247;BME280;56358;56.328;43.992;2023-04-04T00:21:17;100582.78;;;6.68;53.00
69247;BME280;56358;56.328;43.992;2023-04-04T00:23:17;100500.63;;;6.16;53.37
69247;BME280;56358;56.328;43.992;2023-04-04T00:25:18;100593.09;;;6.59;53.54
69247;BME280;56358;56.328;43.992;2023-04-04T00:27:19;100590.97;;;6.49;53.60
69247;BME280;56358;56.328;43.992;2023-04-04T00:29:20;100592.09;;;6.45;54.01
69247;BME280;56358;56.328;43.992;2023-04-04T00:31:20;100591.53;;;6.40;54.38
69247;BME280;56358;56.328;43.992;2023-04-04T00:33:22;100581.78;;;6.25;54.44
69247;BME280;56358;56.328;43.992;2023-04-04T00:35:23;100595.50;;;6.33;54.35
69247;BME280;56358;56.328;43.992;2023-04-04T00:37:23;100585.88;;;6.30;54.23
69247;BME280;56358;56.328;43.992;2023-04-04T00:39:24;100587.78;;;6.28;53.91
69247;BME280;56358;56.328;43.992;2023-04-04T00:41:26;100599.09;;;6.32;53.96
69247;BME280;56358;56.328;43.992;2023-04-04T00:43:28;100567.97;;;6.18;53.85
69247;BME280;56358;56.328;43.992;2023-04-04T00:45:28;100592.00;;;6.32;53.64
69247;BME280;56358;56.328;43.992;2023-04-04T00:47:29;100583.81;;;6.35;53.22
69247;BME280;56358;56.328;43.992;2023-04-04T00:49:30;100576.47;;;6.25;53.66
69247;BME280;56358;56.328;43.992;2023-04-04T00:51:33;100552.00;;;6.18;54.08
69247;BME280;56358;56.328;43.992;2023-04-04T00:53:33;100588.09;;;6.38;54.64
69247;BME280;56358;56.328;43.992;2023-04-04T00:55:36;100589.22;;;6.34;55.05
69247;BME280;56358;56.328;43.992;2023-04-04T00:57:38;100513.31;;;5.80;55.29
69247;BME280;56358;56.328;43.992;2023-04-04T00:59:39;100573.81;;;6.09;55.92
69247;BME280;56358;56.328;43.992;2023-04-04T01:01:39;100512.13;;;5.70;56.39
69247;BME280;56358;56.328;43.992;2023-04-04T01:03:41;100580.84;;;5.94;56.66
69247;BME280;56358;56.328;43.992;2023-04-04T01:05:42;100580.06;;;5.92;57.67
69247;BME280;56358;56.328;43.992;2023-04-04T01:07:42;100519.34;;;5.52;57.39
69247;BME280;56358;56.328;43.992;2023-04-04T01:09:43;100587.31;;;5.90;57.80
69247;BME280;56358;56.328;43.992;2023-04-04T01:11:44;100595.44;;;5.86;57.56
69247;BME280;56358;56.328;43.992;2023-04-04T01:13:46;100578.03;;;5.81;57.74
69247;BME280;56358;56.328;43.992;2023-04-04T01:15:47;100584.72;;;5.72;57.33
69247;BME280;56358;56.328;43.992;2023-04-04T01:17:49;100566.34;;;5.67;56.01
69247;BME280;56358;56.328;43.992;2023-04-04T01:20:16;100499.72;;;5.39;53.67
69247;BME280;56358;56.328;43.992;2023-04-04T01:22:20;100503.13;;;5.57;52.83
69247;BME280;56358;56.328;43.992;2023-04-04T01:24:23;100492.66;;;5.69;52.12
69247;BME280;56358;56.328;43.992;2023-04-04T01:26:26;100571.03;;;6.26;51.04
69247;BME280;56358;56.328;43.992;2023-04-04T01:28:26;100574.34;;;6.46;50.87
69247;BME280;56358;56.328;43.992;2023-04-04T01:30:30;100577.03;;;6.60;50.56
69247;BME280;56358;56.328;43.992;2023-04-04T01:32:44;100428.69;;;5.87;49.82
69247;BME280;56358;56.328;43.992;2023-04-04T01:39:38;100555.38;;;6.81;49.11
69247;BME280;56358;56.328;43.992;2023-04-04T01:41:39;100539.38;;;6.81;49.19
69247;BME280;56358;56.328;43.992;2023-04-04T01:43:44;100537.56;;;6.81;48.66
69247;BME280;56358;56.328;43.992;2023-04-04T01:45:46;100565.66;;;7.01;48.35
69247;BME280;56358;56.328;43.992;2023-04-04T01:47:46;100560.13;;;7.04;48.51
69247;BME280;56358;56.328;43.992;2023-04-04T01:49:47;100545.38;;;6.99;48.15
69247;BME280;56358;56.328;43.992;2023-04-04T01:51:49;100565.38;;;7.06;48.36
69247;BME280;56358;56.328;43.992;2023-04-04T01:53:50;100491.03;;;6.58;48.07
69247;BME280;56358;56.328;43.992;2023-04-04T01:55:52;100571.47;;;7.08;48.29
69247;BME280;56358;56.328;43.992;2023-04-04T01:57:53;100572.16;;;7.12;48.55
69247;BME280;56358;56.328;43.992;2023-04-04T01:59:54;100560.53;;;6.98;49.37
69247;BME280;56358;56.328;43.992;2023-04-04T02:01:54;100574.53;;;7.02;50.02
69247;BME280;56358;56.328;43.992;2023-04-04T02:03:55;100577.56;;;6.96;50.62
69247;BME280;56358;56.328;43.992;2023-04-04T02:05:56;100570.13;;;6.86;50.96
69247;BME280;56358;56.328;43.992;2023-04-04T02:07:56;100556.28;;;6.65;52.06
69247;BME280;56358;56.328;43.992;2023-04-04T02:09:57;100569.13;;;6.59;52.31
69247;BME280;56358;56.328;43.992;2023-04-04T02:11:58;100552.59;;;6.37;52.75
69247;BME280;56358;56.328;43.992;2023-04-04T02:14:00;100559.03;;;6.19;53.11
69247;BME280;56358;56.328;43.992;2023-04-04T02:16:20;100531.88;;;5.98;53.32
69247;BME280;56358;56.328;43.992;2023-04-04T02:18:21;100542.66;;;5.95;53.87
69247;BME280;56358;56.328;43.992;2023-04-04T02:20:22;100579.84;;;6.12;53.91
69247;BME280;56358;56.328;43.992;2023-04-04T02:22:23;100494.47;;;5.53;54.53
69247;BME280;56358;56.328;43.992;2023-04-04T02:24:23;100496.78;;;5.59;54.20
69247;BME280;56358;56.328;43.992;2023-04-04T02:26:24;100558.28;;;5.85;54.40
69247;BME280;56358;56.328;43.992;2023-04-04T02:28:27;100572.00;;;5.93;54.95
69247;BME280;56358;56.328;43.992;2023-04-04T02:30:28;100559.16;;;5.85;55.07
69247;BME280;56358;56.328;43.992;2023-04-04T02:32:28;100569.78;;;5.85;54.95
69247;BME280;56358;56.328;43.992;2023-04-04T02:34:29;100557.16;;;5.73;55.42
69247;BME280;56358;56.328;43.992;2023-04-04T02:36:29;100550.66;;;5.63;55.58
69247;BME280;56358;56.328;43.992;2023-04-04T02:38:30;100576.56;;;5.75;55.77
69247;BME280;56358;56.328;43.992;2023-04-04T02:40:31;100574.16;;;5.70;55.81
69247;BME280;56358;56.328;43.992;2023-04-04T02:42:31;100488.47;;;5.17;55.79
69247;BME280;56358;56.328;43.992;2023-04-04T02:44:32;100571.94;;;5.63;56.33
69247;BME280;56358;56.328;43.992;2023-04-04T02:46:33;100506.72;;;5.24;56.51
69247;BME280;56358;56.328;43.992;2023-04-04T02:48:33;100568.41;;;5.46;56.82
69247;BME280;56358;56.328;43.992;2023-04-04T02:50:35;100548.94;;;5.30;56.76
69247;BME280;56358;56.328;43.992;2023-04-04T02:52:38;100561.53;;;5.42;56.77
69247;BME280;56358;56.328;43.992;2023-04-04T02:54:38;100563.69;;;5.35;57.00
69247;BME280;56358;56.328;43.992;2023-04-04T02:56:39;100561.28;;;5.31;57.24
69247;BME280;56358;56.328;43.992;2023-04-04T02:58:39;100571.13;;;5.29;57.35
69247;BME280;56358;56.328;43.992;2023-04-04T03:00:41;100478.56;;;4.72;57.43
69247;BME280;56358;56.328;43.992;2023-04-04T03:02:41;100557.50;;;5.19;57.63
69247;BME280;56358;56.328;43.992;2023-04-04T03:04:42;100496.63;;;4.81;58.04
69247;BME280;56358;56.328;43.992;2023-04-04T03:06:43;100495.69;;;4.82;57.97
69247;BME280;56358;56.328;43.992;2023-04-04T03:08:44;100568.03;;;5.20;58.39
69247;BME280;56358;56.328;43.992;2023-04-04T03:10:45;100543.31;;;5.02;58.10
69247;BME280;56358;56.328;43.992;2023-04-04T03:12:46;100550.19;;;5.07;58.19
69247;BME280;56358;56.328;43.992;2023-04-04T03:14:47;100579.50;;;5.21;58.09
69247;BME280;56358;56.328;43.992;2023-04-04T03:16:48;100572.59;;;5.18;58.52
69247;BME280;56358;56.328;43.992;2023-04-04T03:18:49;100572.50;;;5.20;58.40
69247;BME280;56358;56.328;43.992;2023-04-04T03:20:50;100518.94;;;4.94;58.25
69247;BME280;56358;56.328;43.992;2023-04-04T03:22:50;100577.66;;;5.23;58.14
69247;BME280;56358;56.328;43.992;2023-04-04T03:24:51;100507.63;;;4.91;57.99
69247;BME280;56358;56.328;43.992;2023-04-04T03:26:52;100561.88;;;5.20;58.10
69247;BME280;56358;56.328;43.992;2023-04-04T03:28:52;100491.25;;;4.82;58.02
69247;BME280;56358;56.328;43.992;2023-04-04T03:30:53;100568.16;;;5.35;57.74
69247;BME280;56358;56.328;43.992;2023-04-04T03:32:54;100565.16;;;5.41;57.42
69247;BME280;56358;56.328;43.992;2023-04-04T03:34:54;100485.38;;;4.93;57.36
69247;BME280;56358;56.328;43.992;2023-04-04T03:36:55;100542.75;;;5.29;57.27
69247;BME280;56358;56.328;43.992;2023-04-04T03:38:56;100509.31;;;5.09;57.15
69247;BME280;56358;56.328;43.992;2023-04-04T03:41:01;100557.44;;;5.52;57.10
69247;BME280;56358;56.328;43.992;2023-04-04T03:43:05;100549.63;;;5.49;57.22
69247;BME280;56358;56.328;43.992;2023-04-04T03:45:07;100558.88;;;5.58;57.06
69247;BME280;56358;56.328;43.992;2023-04-04T03:47:07;100565.00;;;5.60;57.00
69247;BME280;56358;56.328;43.992;2023-04-04T03:49:08;100552.81;;;5.56;56.89
69247;BME280;56358;56.328;43.992;2023-04-04T03:51:09;100562.94;;;5.65;56.83
69247;BME280;56358;56.328;43.992;2023-04-04T03:53:11;100558.13;;;5.72;56.74
69247;BME280;56358;56.328;43.992;2023-04-04T03:55:11;100585.50;;;5.74;56.72
69247;BME280;56358;56.328;43.992;2023-04-04T03:57:13;100527.25;;;5.53;56.85
69247;BME280;56358;56.328;43.992;2023-04-04T03:59:14;100566.03;;;5.74;56.89
69247;BME280;56358;56.328;43.992;2023-04-04T04:01:14;100550.81;;;5.76;56.48
69247;BME280;56358;56.328;43.992;2023-04-04T04:03:15;100556.50;;;5.85;54.53
69247;BME280;56358;56.328;43.992;2023-04-04T04:05:15;100552.44;;;5.94;52.91
69247;BME280;56358;56.328;43.992;2023-04-04T04:07:16;100557.31;;;6.18;52.09
69247;BME280;56358;56.328;43.992;2023-04-04T04:09:17;100559.94;;;6.34;51.37
69247;BME280;56358;56.328;43.992;2023-04-04T04:11:18;100555.97;;;6.41;50.94
69247;BME280;56358;56.328;43.992;2023-04-04T04:13:19;100508.97;;;6.26;50.44
69247;BME280;56358;56.328;43.992;2023-04-04T04:15:19;100505.91;;;6.32;50.06
69247;BME280;56358;56.328;43.992;2023-04-04T04:17:20;100550.69;;;6.70;49.79
69247;BME280;56358;56.328;43.992;2023-04-04T04:19:21;100565.19;;;6.95;49.42
69247;BME280;56358;56.328;43.992;2023-04-04T04:21:21;100564.22;;;6.96;49.95
69247;BME280;56358;56.328;43.992;2023-04-04T04:23:22;100577.09;;;7.03;51.18
69247;BME280;56358;56.328;43.992;2023-04-04T04:25:23;100496.63;;;6.39;51.98
69247;BME280;56358;56.328;43.992;2023-04-04T04:27:24;100553.91;;;6.61;52.25
69247;BME280;56358;56.328;43.992;2023-04-04T04:29:24;100573.59;;;6.58;53.26
69247;BME280;56358;56.328;43.992;2023-04-04T04:31:25;100591.75;;;6.51;54.19
69247;BME280;56358;56.328;43.992;2023-04-04T04:33:28;100601.59;;;6.35;54.60
69247;BME280;56358;56.328;43.992;2023-04-04T04:35:29;100603.09;;;6.25;55.35
69247;BME280;56358;56.328;43.992;2023-04-04T04:37:30;100603.69;;;6.14;55.65
69247;BME280;56358;56.328;43.992;2023-04-04T04:39:31;100465.06;;;5.24;55.73
69247;BME280;56358;56.328;43.992;2023-04-04T04:41:31;100627.31;;;6.04;55.96
69247;BME280;56358;56.328;43.992;2023-04-04T04:43:32;100604.22;;;6.04;56.44
69247;BME280;56358;56.328;43.992;2023-04-04T04:45:33;100578.84;;;5.97;56.31
69247;BME280;56358;56.328;43.992;2023-04-04T04:47:34;100601.78;;;6.16;55.82
69247;BME280;56358;56.328;43.992;2023-04-04T04:49:34;100598.00;;;6.20;56.06
69247;BME280;56358;56.328;43.992;2023-04-04T04:51:35;100599.28;;;6.29;56.06
69247;BME280;56358;56.328;43.992;2023-04-04T04:53:35;100471.41;;;5.53;55.64
69247;BME280;56358;56.328;43.992;2023-04-04T04:55:36;100508.84;;;5.81;55.31
69247;BME280;56358;56.328;43.992;2023-04-04T04:57:37;100586.81;;;6.29;55.00
69247;BME280;56358;56.328;43.992;2023-04-04T04:59:38;100574.38;;;6.30;54.79
69247;BME280;56358;56.328;43.992;2023-04-04T05:01:40;100601.19;;;6.57;54.55
69247;BME280;56358;56.328;43.992;2023-04-04T05:03:41;100587.88;;;6.57;54.94
69247;BME280;56358;56.328;43.992;2023-04-04T05:05:42;100592.50;;;6.53;55.30
69247;BME280;56358;56.328;43.992;2023-04-04T05:07:44;100593.78;;;6.62;55.20
69247;BME280;56358;56.328;43.992;2023-04-04T05:09:45;100599.78;;;6.66;55.16
69247;BME280;56358;56.328;43.992;2023-04-04T05:11:46;100589.63;;;6.73;54.89
69247;BME280;56358;56.328;43.992;2023-04-04T05:13:47;100589.13;;;6.80;54.33
69247;BME280;56358;56.328;43.992;2023-04-04T05:15:47;100564.66;;;6.74;53.93
69247;BME280;56358;56.328;43.992;2023-04-04T05:17:48;100498.69;;;6.34;53.67
69247;BME280;56358;56.328;43.992;2023-04-04T05:19:49;100545.53;;;6.67;53.78
69247;BME280;56358;56.328;43.992;2023-04-04T05:21:49;100589.94;;;7.11;53.54
69247;BME280;56358;56.328;43.992;2023-04-04T05:23:50;100582.25;;;7.21;53.32
69247;BME280;56358;56.328;43.992;2023-04-04T05:25:51;100583.88;;;7.24;53.22
69247;BME280;56358;56.328;43.992;2023-04-04T05:27:52;100584.50;;;7.27;53.15
69247;BME280;56358;56.328;43.992;2023-04-04T05:29:55;100511.69;;;6.83;53.04
69247;BME280;56358;56.328;43.992;2023-04-04T05:31:55;100588.78;;;7.30;52.75
69247;BME280;56358;56.328;43.992;2023-04-04T05:33:56;100585.97;;;7.33;52.55
69247;BME280;56358;56.328;43.992;2023-04-04T05:35:58;100610.50;;;7.38;52.52
69247;BME280;56358;56.328;43.992;2023-04-04T05:37:59;100580.31;;;7.23;52.52
69247;BME280;56358;56.328;43.992;2023-04-04T05:40:00;100598.03;;;7.38;52.34
69247;BME280;56358;56.328;43.992;2023-04-04T05:42:01;100592.41;;;7.43;52.61
69247;BME280;56358;56.328;43.992;2023-04-04T05:44:02;100572.03;;;7.42;52.38
69247;BME280;56358;56.328;43.992;2023-04-04T05:46:02;100594.69;;;7.64;52.10
69247;BME280;56358;56.328;43.992;2023-04-04T05:48:03;100551.34;;;7.46;51.84
69247;BME280;56358;56.328;43.992;2023-04-04T05:50:04;100526.13;;;7.37;51.60
69247;BME280;56358;56.328;43.992;2023-04-04T05:52:06;100601.97;;;7.89;51.18
69247;BME280;56358;56.328;43.992;2023-04-04T05:54:06;100604.50;;;8.05;51.23
69247;BME280;56358;56.328;43.992;2023-04-04T05:56:07;100523.28;;;7.67;50.64
69247;BME280;56358;56.328;43.992;2023-04-04T05:58:08;100603.94;;;8.27;50.38
69247;BME280;56358;56.328;43.992;2023-04-04T06:00:09;100600.75;;;8.35;50.22
69247;BME280;56358;56.328;43.992;2023-04-04T06:02:10;100596.44;;;8.47;50.20
69247;BME280;56358;56.328;43.992;2023-04-04T06:04:11;100597.00;;;8.52;49.57
69247;BME280;56358;56.328;43.992;2023-04-04T06:06:12;100590.56;;;8.54;49.42
69247;BME280;56358;56.328;43.992;2023-04-04T06:08:13;100571.41;;;8.48;49.23
69247;BME280;56358;56.328;43.992;2023-04-04T06:10:13;100597.94;;;8.64;48.71
69247;BME280;56358;56.328;43.992;2023-04-04T06:12:14;100591.34;;;8.69;48.46
69247;BME280;56358;56.328;43.992;2023-04-04T06:14:15;100581.94;;;8.77;48.70
69247;BME280;56358;56.328;43.992;2023-04-04T06:16:15;100595.84;;;8.95;47.96
69247;BME280;56358;56.328;43.992;2023-04-04T06:18:16;100582.06;;;9.14;47.61
69247;BME280;56358;56.328;43.992;2023-04-04T06:20:17;100593.91;;;9.35;46.78
69247;BME280;56358;56.328;43.992;2023-04-04T06:22:20;100574.66;;;9.30;46.64
69247;BME280;56358;56.328;43.992;2023-04-04T06:24:21;100595.06;;;9.44;46.37
69247;BME280;56358;56.328;43.992;2023-04-04T06:26:21;100552.28;;;9.31;46.62
69247;BME280;56358;56.328;43.992;2023-04-04T06:28:22;100587.47;;;9.51;46.07
69247;BME280;56358;56.328;43.992;2023-04-04T06:30:23;100527.38;;;9.18;46.04
69247;BME280;56358;56.328;43.992;2023-04-04T06:32:23;100596.13;;;9.67;45.89
69247;BME280;56358;56.328;43.992;2023-04-04T06:34:25;100591.16;;;9.74;45.97
69247;BME280;56358;56.328;43.992;2023-04-04T06:36:26;100596.41;;;9.76;45.51
69247;BME280;56358;56.328;43.992;2023-04-04T06:38:27;100594.44;;;9.90;45.35
69247;BME280;56358;56.328;43.992;2023-04-04T06:40:28;100594.47;;;10.02;45.65
69247;BME280;56358;56.328;43.992;2023-04-04T06:42:29;100547.41;;;9.86;45.19
69247;BME280;56358;56.328;43.992;2023-04-04T06:44:30;100582.28;;;10.22;45.11
69247;BME280;56358;56.328;43.992;2023-04-04T06:46:31;100540.19;;;10.00;45.02
69247;BME280;56358;56.328;43.992;2023-04-04T06:48:32;100589.34;;;10.36;44.36
69247;BME280;56358;56.328;43.992;2023-04-04T06:50:33;100587.16;;;10.41;44.92
69247;BME280;56358;56.328;43.992;2023-04-04T06:52:33;100597.91;;;10.52;44.80
69247;BME280;56358;56.328;43.992;2023-04-04T06:54:34;100596.88;;;10.66;44.26
69247;BME280;56358;56.328;43.992;2023-04-04T06:56:35;100578.59;;;10.71;44.65
69247;BME280;56358;56.328;43.992;2023-04-04T06:58:36;100521.50;;;10.47;44.38
69247;BME280;56358;56.328;43.992;2023-04-04T07:00:38;100592.66;;;10.98;44.37
69247;BME280;56358;56.328;43.992;2023-04-04T07:02:39;100584.75;;;10.96;44.22
69247;BME280;56358;56.328;43.992;2023-04-04T07:04:40;100584.28;;;11.02;44.29
69247;BME280;56358;56.328;43.992;2023-04-04T07:06:41;100594.00;;;11.03;44.04
69247;BME280;56358;56.328;43.992;2023-04-04T07:08:41;100583.91;;;11.07;44.28
69247;BME280;56358;56.328;43.992;2023-04-04T07:10:42;100581.34;;;11.05;44.05
69247;BME280;56358;56.328;43.992;2023-04-04T07:12:43;100585.63;;;11.19;43.85
69247;BME280;56358;56.328;43.992;2023-04-04T07:14:43;100584.16;;;11.27;43.04
69247;BME280;56358;56.328;43.992;2023-04-04T07:16:44;100592.34;;;11.36;43.33
69247;BME280;56358;56.328;43.992;2023-04-04T07:18:44;100589.75;;;11.46;43.30
69247;BME280;56358;56.328;43.992;2023-04-04T07:20:45;100577.78;;;11.50;42.82
69247;BME280;56358;56.328;43.992;2023-04-04T07:22:47;100529.63;;;11.26;42.73
69247;BME280;56358;56.328;43.992;2023-04-04T07:24:48;100581.69;;;11.69;42.53
69247;BME280;56358;56.328;43.992;2023-04-04T07:26:49;100566.53;;;11.68;42.22
69247;BME280;56358;56.328;43.992;2023-04-04T07:28:49;100581.28;;;11.85;42.34
69247;BME280;56358;56.328;43.992;2023-04-04T07:30:50;100573.25;;;11.85;41.88
69247;BME280;56358;56.328;43.992;2023-04-04T07:32:57;100569.84;;;11.83;41.61
69247;BME280;56358;56.328;43.992;2023-04-04T07:34:58;100586.44;;;11.99;41.59
69247;BME280;56358;56.328;43.992;2023-04-04T07:36:59;100576.63;;;12.10;41.73
69247;BME280;56358;56.328;43.992;2023-04-04T07:38:59;100565.00;;;12.09;41.34
69247;BME280;56358;56.328;43.992;2023-04-04T07:41:00;100575.75;;;12.20;41.52
69247;BME280;56358;56.328;43.992;2023-04-04T07:43:00;100576.59;;;12.21;41.33
69247;BME280;56358;56.328;43.992;2023-04-04T07:45:01;100573.25;;;12.29;41.33
69247;BME280;56358;56.328;43.992;2023-04-04T07:47:03;100567.63;;;12.32;41.22
69247;BME280;56358;56.328;43.992;2023-04-04T07:49:04;100568.75;;;12.50;40.96
69247;BME280;56358;56.328;43.992;2023-04-04T07:51:05;100565.16;;;12.61;41.23
69247;BME280;56358;56.328;43.992;2023-04-04T07:53:05;100567.06;;;12.70;40.79
69247;BME280;56358;56.328;43.992;2023-04-04T07:55:07;100587.56;;;12.93;41.04
69247;BME280;56358;56.328;43.992;2023-04-04T07:57:08;100574.75;;;13.06;41.06
69247;BME280;56358;56.328;43.992;2023-04-04T07:59:11;100566.19;;;13.22;40.92
69247;BME280;56358;56.328;43.992;2023-04-04T08:01:12;100563.56;;;13.32;40.46
69247;BME280;56358;56.328;43.992;2023-04-04T08:03:13;100566.75;;;13.37;39.50
69247;BME280;56358;56.328;43.992;2023-04-04T08:05:14;100577.88;;;13.63;39.89
69247;BME280;56358;56.328;43.992;2023-04-04T08:07:14;100576.66;;;13.77;39.96
69247;BME280;56358;56.328;43.992;2023-04-04T08:09:15;100571.13;;;13.88;39.64
69247;BME280;56358;56.328;43.992;2023-04-04T08:11:16;100578.38;;;13.98;39.41
69247;BME280;56358;56.328;43.992;2023-04-04T08:13:16;100582.94;;;13.97;39.47
69247;BME280;56358;56.328;43.992;2023-04-04T08:15:17;100573.97;;;13.97;39.42
69247;BME280;56358;56.328;43.992;2023-04-04T08:17:18;100573.84;;;13.98;39.02
69247;BME280;56358;56.328;43.992;2023-04-04T08:19:19;100576.13;;;14.03;39.31
69247;BME280;56358;56.328;43.992;2023-04-04T08:21:20;100578.09;;;14.01;39.21
69247;BME280;56358;56.328;43.992;2023-04-04T08:23:21;100566.63;;;13.99;39.15
69247;BME280;56358;56.328;43.992;2023-04-04T08:25:21;100582.50;;;14.12;38.91
69247;BME280;56358;56.328;43.992;2023-04-04T08:27:22;100584.50;;;14.19;39.32
69247;BME280;56358;56.328;43.992;2023-04-04T08:29:23;100560.81;;;14.13;38.90
69247;BME280;56358;56.328;43.992;2023-04-04T08:31:24;100571.47;;;14.24;38.68
69247;BME280;56358;56.328;43.992;2023-04-04T08:33:24;100571.59;;;14.33;38.89
69247;BME280;56358;56.328;43.992;2023-04-04T08:35:25;100574.16;;;14.34;38.01
69247;BME280;56358;56.328;43.992;2023-04-04T08:37:25;100572.88;;;14.38;38.53
69247;BME280;56358;56.328;43.992;2023-04-04T08:39:28;100555.56;;;14.31;38.14
69247;BME280;56358;56.328;43.992;2023-04-04T08:41:29;100561.53;;;14.45;38.36
69247;BME280;56358;56.328;43.992;2023-04-04T08:43:34;100498.25;;;14.10;38.16
69247;BME280;56358;56.328;43.992;2023-04-04T08:45:37;100569.06;;;14.51;37.98
69247;BME280;56358;56.328;43.992;2023-04-04T08:47:40;100566.06;;;14.54;38.29
69247;BME280;56358;56.328;43.992;2023-04-04T08:49:43;100571.88;;;14.59;38.12
69247;BME280;56358;56.328;43.992;2023-04-04T08:51:46;100562.66;;;14.62;38.06
69247;BME280;56358;56.328;43.992;2023-04-04T08:53:48;100560.53;;;14.75;38.04
69247;BME280;56358;56.328;43.992;2023-04-04T08:55:50;100563.16;;;15.04;37.76
69247;BME280;56358;56.328;43.992;2023-04-04T08:57:50;100503.38;;;14.89;37.42
69247;BME280;56358;56.328;43.992;2023-04-04T08:59:52;100571.91;;;15.54;36.71
69247;BME280;56358;56.328;43.992;2023-04-04T09:02:04;100556.56;;;15.82;35.92
69247;BME280;56358;56.328;43.992;2023-04-04T09:04:14;100572.59;;;16.48;35.19
69247;BME280;56358;56.328;43.992;2023-04-04T09:06:16;100566.59;;;17.06;34.47
69247;BME280;56358;56.328;43.992;2023-04-04T09:08:18;100575.31;;;17.53;33.69
69247;BME280;56358;56.328;43.992;2023-04-04T09:10:19;100568.16;;;17.86;32.31
69247;BME280;56358;56.328;43.992;2023-04-04T09:12:21;100569.91;;;18.12;32.32
69247;BME280;56358;56.328;43.992;2023-04-04T09:14:24;100506.44;;;17.80;31.72
69247;BME280;56358;56.328;43.992;2023-04-04T09:16:25;100569.63;;;18.40;31.38
69247;BME280;56358;56.328;43.992;2023-04-04T09:18:26;100506.03;;;18.34;31.64
69247;BME280;56358;56.328;43.992;2023-04-04T09:20:38;100517.34;;;18.87;31.20
69247;BME280;56358;56.328;43.992;2023-04-04T09:22:44;100568.94;;;19.60;30.34
69247;BME280;56358;56.328;43.992;2023-04-04T09:24:44;100566.25;;;19.91;29.22
69247;BME280;56358;56.328;43.992;2023-04-04T09:26:49;100566.28;;;20.15;29.23
69247;BME280;56358;56.328;43.992;2023-04-04T09:28:53;100565.53;;;20.44;28.77
69247;BME280;56358;56.328;43.992;2023-04-04T09:30:54;100568.84;;;20.77;28.72
69247;BME280;56358;56.328;43.992;2023-04-04T09:32:55;100566.09;;;21.01;28.29
69247;BME280;56358;56.328;43.992;2023-04-04T09:34:57;100541.75;;;21.14;27.53
69247;BME280;56358;56.328;43.992;2023-04-04T09:36:58;100555.09;;;21.24;27.45
69247;BME280;56358;56.328;43.992;2023-04-04T09:38:59;100558.94;;;21.30;27.13
69247;BME280;56358;56.328;43.992;2023-04-04T09:41:00;100561.88;;;21.73;27.38
69247;BME280;56358;56.328;43.992;2023-04-04T09:43:03;100543.88;;;21.79;26.42
69247;BME280;56358;56.328;43.992;2023-04-04T09:45:05;100561.94;;;22.16;26.48
69247;BME280;56358;56.328;43.992;2023-04-04T09:47:23;100556.97;;;22.41;26.02
69247;BME280;56358;56.328;43.992;2023-04-04T09:49:24;100536.44;;;22.31;26.18
69247;BME280;56358;56.328;43.992;2023-04-04T09:51:35;100533.38;;;22.62;25.84
69247;BME280;56358;56.328;43.992;2023-04-04T09:53:37;100545.75;;;22.86;25.74
69247;BME280;56358;56.328;43.992;2023-04-04T09:55:39;100555.78;;;23.07;25.65
69247;BME280;56358;56.328;43.992;2023-04-04T09:57:40;100544.56;;;23.24;25.31
69247;BME280;56358;56.328;43.992;2023-04-04T09:59:41;100550.78;;;23.46;24.90
69247;BME280;56358;56.328;43.992;2023-04-04T10:01:44;100491.06;;;23.56;24.75
69247;BME280;56358;56.328;43.992;2023-04-04T10:03:52;100549.19;;;23.72;24.26
69247;BME280;56358;56.328;43.992;2023-04-04T10:06:03;100544.63;;;23.79;23.94
69247;BME280;56358;56.328;43.992;2023-04-04T10:08:20;100561.75;;;24.01;23.86
69247;BME280;56358;56.328;43.992;2023-04-04T10:10:21;100551.69;;;24.15;23.67
69247;BME280;56358;56.328;43.992;2023-04-04T10:12:25;100534.16;;;24.09;23.26
69247;BME280;56358;56.328;43.992;2023-04-04T10:14:36;100546.03;;;24.30;23.18
69247;BME280;56358;56.328;43.992;2023-04-04T10:16:43;100546.44;;;24.54;23.53
69247;BME280;56358;56.328;43.992;2023-04-04T10:18:45;100548.16;;;24.75;23.08
69247;BME280;56358;56.328;43.992;2023-04-04T10:20:48;100534.22;;;24.83;22.95
69247;BME280;56358;56.328;43.992;2023-04-04T10:22:49;100545.56;;;25.20;22.71
69247;BME280;56358;56.328;43.992;2023-04-04T10:24:50;100513.72;;;25.13;21.34
69247;BME280;56358;56.328;43.992;2023-04-04T10:26:53;100463.41;;;24.73;22.20
69247;BME280;56358;56.328;43.992;2023-04-04T10:28:54;100555.31;;;25.03;22.52
69247;BME280;56358;56.328;43.992;2023-04-04T10:31:15;100517.78;;;24.76;22.19
69247;BME280;56358;56.328;43.992;2023-04-04T10:35:50;100551.88;;;25.27;21.70
69247;BME280;56358;56.328;43.992;2023-04-04T10:37:58;100554.78;;;25.53;21.29
69247;BME280;56358;56.328;43.992;2023-04-04T10:42:14;100551.91;;;25.80;21.28